Time;durP1;ratioP1;P1;durP2;ratioP2;P2;SDS_P1;SDS_P2;PMS_P1;PMS_P2;Temp;Humidity;BMP_temperature;BMP_pressure;BME280_temperature;BME280_humidity;BME280_pressure;Samples;Min_cycle;Max_cycle;Signal;HPM_P1;HPM_P2
2021/12/24 00:01:51;;;;;;;33.75;12.50;;;7.20;94.90;;;;;;5039146;28;20041;-68
2021/12/24 00:04:17;;;;;;;39.22;13.20;;;7.30;94.90;;;;;;5027809;28;20047;-69
2021/12/24 00:06:43;;;;;;;34.38;13.30;;;7.30;94.90;;;;;;5049644;28;20056;-68
2021/12/24 00:09:10;;;;;;;34.63;13.02;;;7.30;95.00;;;;;;5049084;28;20044;-68
2021/12/24 00:11:36;;;;;;;27.45;11.88;;;7.40;95.00;;;;;;5049327;28;20466;-68
2021/12/24 00:14:05;;;;;;;37.25;13.80;;;7.50;95.00;;;;;;5046578;28;20132;-68
2021/12/24 00:16:49;;;;;;;36.50;14.27;;;7.50;95.10;;;;;;5048684;28;20053;-68
2021/12/24 00:19:22;;;;;;;33.50;13.88;;;7.60;95.10;;;;;;5038336;28;20410;-68
2021/12/24 00:35:39;;;;;;;44.40;15.65;;;7.90;95.40;;;;;;5035609;28;20502;-68
2021/12/24 00:38:08;;;;;;;47.17;16.75;;;8.00;95.50;;;;;;5048682;28;20553;-68
2021/12/24 00:40:43;;;;;;;48.50;17.00;;;8.00;95.40;;;;;;5047973;28;20045;-68
2021/12/24 00:43:10;;;;;;;58.72;19.30;;;8.00;95.40;;;;;;5046292;28;20059;-68
2021/12/24 00:45:42;;;;;;;55.08;18.58;;;8.10;95.40;;;;;;5037206;28;20044;-68
2021/12/24 00:48:11;;;;;;;60.42;20.23;;;8.00;95.40;;;;;;5042474;28;20048;-68
2021/12/24 00:51:18;;;;;;;67.55;19.60;;;8.10;95.50;;;;;;5046524;28;20045;-68
2021/12/24 00:56:08;;;;;;;63.13;20.95;;;8.10;95.50;;;;;;5047792;28;20080;-68
2021/12/24 00:58:34;;;;;;;59.38;19.73;;;8.10;95.40;;;;;;5048377;28;20037;-68
2021/12/24 01:01:00;;;;;;;68.22;20.48;;;8.10;95.40;;;;;;5045179;28;20127;-68
2021/12/24 01:03:27;;;;;;;55.65;20.38;;;8.10;95.40;;;;;;5047148;28;20064;-68
2021/12/24 01:05:53;;;;;;;61.47;20.52;;;8.10;95.40;;;;;;5047714;28;20489;-68
2021/12/24 01:08:18;;;;;;;50.95;19.92;;;8.10;95.40;;;;;;5047654;28;20068;-68
2021/12/24 01:10:54;;;;;;;63.35;19.88;;;8.10;95.30;;;;;;5047834;28;20764;-68
2021/12/24 01:13:19;;;;;;;50.72;20.17;;;8.10;95.30;;;;;;5048155;28;20550;-68
2021/12/24 01:18:32;;;;;;;60.60;19.65;;;8.10;95.40;;;;;;5046324;28;20045;-68
2021/12/24 01:21:19;;;;;;;54.75;19.10;;;8.10;95.40;;;;;;5046738;28;20072;-68
2021/12/24 01:26:16;;;;;;;57.72;19.15;;;8.20;95.40;;;;;;5046634;28;20158;-68
2021/12/24 01:39:39;;;;;;;59.05;18.75;;;8.30;95.30;;;;;;5051487;28;20053;-68
2021/12/24 01:44:51;;;;;;;60.63;19.48;;;8.30;95.30;;;;;;5048231;28;20427;-68
2021/12/24 01:47:16;;;;;;;49.38;17.02;;;8.30;95.30;;;;;;5049282;28;20119;-68
2021/12/24 01:49:42;;;;;;;50.83;17.30;;;8.30;95.30;;;;;;5051575;28;20045;-69
2021/12/24 01:52:08;;;;;;;47.55;15.73;;;8.40;95.40;;;;;;5051134;28;20045;-68
2021/12/24 01:54:34;;;;;;;54.72;17.13;;;8.40;95.30;;;;;;5042101;28;20139;-68
2021/12/24 01:57:00;;;;;;;39.85;14.40;;;8.40;95.40;;;;;;5051164;28;20152;-68
2021/12/24 01:59:26;;;;;;;58.72;17.20;;;8.40;95.40;;;;;;5050131;28;20503;-68
2021/12/24 02:01:52;;;;;;;64.03;16.23;;;8.40;95.30;;;;;;5044622;28;20073;-68
2021/12/24 02:04:19;;;;;;;49.78;16.27;;;8.50;95.40;;;;;;5050478;28;20051;-68
2021/12/24 02:06:45;;;;;;;50.00;15.45;;;8.50;95.30;;;;;;5049655;28;20493;-68
2021/12/24 02:09:12;;;;;;;58.85;16.02;;;8.50;95.30;;;;;;5051286;28;20044;-69
2021/12/24 02:11:39;;;;;;;65.00;16.90;;;8.50;95.30;;;;;;5050888;28;20131;-69
2021/12/24 02:14:18;;;;;;;47.85;14.95;;;8.50;95.30;;;;;;5050909;28;20429;-69
2021/12/24 02:30:41;;;;;;;55.00;15.25;;;8.50;95.30;;;;;;5050588;28;20084;-68
2021/12/24 02:33:07;;;;;;;55.00;15.00;;;8.40;95.30;;;;;;5050626;28;20039;-68
2021/12/24 02:35:34;;;;;;;57.70;15.63;;;8.40;95.20;;;;;;5049997;28;20037;-68
2021/12/24 02:38:00;;;;;;;61.28;15.02;;;8.50;95.20;;;;;;5047097;28;20417;-68
2021/12/24 02:40:30;;;;;;;53.15;15.98;;;8.50;95.30;;;;;;5050326;28;20041;-68
2021/12/24 02:42:57;;;;;;;77.03;17.08;;;8.50;95.20;;;;;;5043570;28;20049;-68
2021/12/24 02:45:25;;;;;;;51.13;14.95;;;8.40;95.30;;;;;;5050700;28;20052;-68
2021/12/24 02:48:10;;;;;;;44.70;14.00;;;8.40;95.30;;;;;;5043706;28;20042;-68
2021/12/24 02:56:09;;;;;;;43.28;14.75;;;8.50;95.30;;;;;;5040192;28;20037;-69
2021/12/24 02:58:44;;;;;;;40.80;11.80;;;8.50;95.20;;;;;;5048986;28;20061;-68
2021/12/24 03:01:12;;;;;;;34.83;13.05;;;8.60;95.30;;;;;;5045219;28;20484;-68
2021/12/24 03:03:38;;;;;;;48.72;13.05;;;8.50;95.30;;;;;;5043270;28;20064;-69
2021/12/24 03:06:05;;;;;;;39.00;12.95;;;8.50;95.30;;;;;;5048639;28;20661;-68
2021/12/24 03:08:31;;;;;;;39.90;15.32;;;8.50;95.30;;;;;;5045591;28;20073;-68
2021/12/24 03:10:58;;;;;;;40.65;14.35;;;8.60;95.30;;;;;;5047895;28;20091;-68
2021/12/24 03:13:25;;;;;;;41.72;15.07;;;8.60;95.40;;;;;;5050387;28;20063;-68
2021/12/24 03:15:53;;;;;;;40.90;15.27;;;8.60;95.30;;;;;;5046994;28;20072;-68
2021/12/24 03:18:24;;;;;;;42.58;17.23;;;8.60;95.20;;;;;;5042670;28;20052;-68
2021/12/24 03:20:58;;;;;;;47.63;18.20;;;8.60;95.20;;;;;;5036309;28;20049;-69
2021/12/24 03:23:35;;;;;;;54.85;19.60;;;8.60;95.20;;;;;;5049735;28;20045;-69
2021/12/24 03:26:02;;;;;;;53.78;18.63;;;8.60;95.20;;;;;;5041037;28;20045;-69
2021/12/24 03:28:28;;;;;;;52.08;19.38;;;8.70;95.20;;;;;;5044248;28;20041;-68
2021/12/24 03:30:54;;;;;;;67.38;23.27;;;8.60;95.20;;;;;;5043574;28;20051;-69
2021/12/24 03:33:19;;;;;;;58.08;21.38;;;8.60;95.20;;;;;;5043598;28;20060;-69
2021/12/24 03:35:45;;;;;;;50.25;20.88;;;8.70;95.20;;;;;;5048166;28;20124;-69
2021/12/24 03:38:10;;;;;;;52.60;20.52;;;8.70;95.10;;;;;;5046260;28;20052;-68
2021/12/24 03:40:36;;;;;;;51.67;19.40;;;8.70;95.10;;;;;;5049268;28;20040;-69
2021/12/24 03:43:02;;;;;;;53.85;21.73;;;8.70;95.10;;;;;;5046524;28;20057;-69
2021/12/24 03:45:36;;;;;;;58.75;20.95;;;8.70;95.00;;;;;;5049066;28;20144;-69
2021/12/24 03:48:13;;;;;;;59.67;20.50;;;8.70;95.00;;;;;;5047480;28;20085;-69
2021/12/24 03:56:15;;;;;;;43.83;18.80;;;8.60;95.00;;;;;;5047356;28;20402;-69
2021/12/24 03:58:42;;;;;;;52.22;17.40;;;8.70;95.00;;;;;;5048293;28;20047;-69
2021/12/24 04:01:09;;;;;;;44.53;16.70;;;8.70;95.00;;;;;;5045388;28;20103;-69
2021/12/24 04:03:35;;;;;;;37.25;16.40;;;8.60;95.10;;;;;;5049487;28;20120;-69
2021/12/24 04:06:01;;;;;;;47.78;16.98;;;8.60;95.00;;;;;;5041524;28;20072;-69
2021/12/24 04:08:27;;;;;;;40.72;14.68;;;8.60;95.00;;;;;;5041772;28;20049;-68
2021/12/24 04:10:52;;;;;;;39.33;15.80;;;8.60;95.00;;;;;;5030378;28;20056;-69
2021/12/24 04:13:18;;;;;;;39.50;14.82;;;8.70;95.00;;;;;;5049367;28;20033;-69
2021/12/24 04:15:44;;;;;;;29.30;15.10;;;8.60;94.90;;;;;;5047793;28;20047;-68
2021/12/24 04:18:20;;;;;;;44.90;16.63;;;8.70;94.90;;;;;;5046927;28;20067;-69
2021/12/24 04:26:15;;;;;;;50.75;17.25;;;8.70;94.90;;;;;;5048601;28;20076;-69
2021/12/24 04:28:40;;;;;;;47.45;15.77;;;8.60;94.90;;;;;;5036954;28;20072;-69
2021/12/24 04:31:06;;;;;;;49.47;17.05;;;8.70;95.00;;;;;;5047762;28;20520;-69
2021/12/24 04:33:38;;;;;;;48.78;17.42;;;8.70;94.90;;;;;;5040875;28;20087;-69
2021/12/24 04:39:32;;;;;;;46.80;17.42;;;8.70;95.00;;;;;;5025837;28;20063;-68
2021/12/24 05:03:40;;;;;;;36.17;13.18;;;8.70;94.50;;;;;;5048802;28;20049;-68
2021/12/24 05:11:12;;;;;;;36.38;11.13;;;8.70;94.30;;;;;;5047093;28;20048;-68
2021/12/24 05:13:38;;;;;;;51.97;15.98;;;8.70;94.30;;;;;;5035573;28;20644;-69
2021/12/24 05:16:36;;;;;;;42.20;13.43;;;8.70;94.30;;;;;;5037020;28;20486;-69
2021/12/24 05:24:07;;;;;;;36.33;9.23;;;8.70;94.00;;;;;;5046527;28;20056;-68
2021/12/24 05:26:34;;;;;;;27.73;8.20;;;8.70;94.00;;;;;;5048828;28;20161;-69
2021/12/24 05:29:02;;;;;;;30.17;9.02;;;8.70;93.90;;;;;;5044291;28;20096;-68
2021/12/24 05:31:28;;;;;;;30.35;8.95;;;8.70;93.80;;;;;;5042246;28;20048;-68
2021/12/24 05:33:54;;;;;;;40.28;10.57;;;8.70;93.80;;;;;;5046674;28;20053;-69
2021/12/24 05:36:20;;;;;;;29.88;9.10;;;8.60;93.80;;;;;;5048695;28;20045;-69
2021/12/24 05:38:46;;;;;;;41.75;10.23;;;8.60;93.80;;;;;;5045308;28;20049;-68
2021/12/24 05:41:13;;;;;;;36.17;8.82;;;8.60;93.90;;;;;;5044544;28;20420;-68
2021/12/24 05:43:39;;;;;;;38.40;10.15;;;8.60;93.90;;;;;;5048159;28;20115;-68
2021/12/24 05:46:04;;;;;;;39.65;9.02;;;8.50;93.90;;;;;;5045099;28;20049;-68
2021/12/24 05:48:30;;;;;;;39.40;7.25;;;8.60;94.00;;;;;;5048377;28;20049;-68
2021/12/24 05:50:57;;;;;;;34.05;7.30;;;8.60;94.00;;;;;;5033898;28;20529;-68
2021/12/24 05:53:24;;;;;;;34.75;7.65;;;8.60;93.80;;;;;;5026807;28;20132;-68
2021/12/24 05:55:50;;;;;;;30.23;7.35;;;8.60;94.00;;;;;;5040600;28;20052;-68
2021/12/24 05:58:15;;;;;;;40.47;8.73;;;8.60;94.00;;;;;;5037888;28;20041;-69
2021/12/24 06:00:43;;;;;;;44.88;7.45;;;8.60;93.90;;;;;;5041337;28;20037;-68
2021/12/24 06:03:10;;;;;;;27.45;6.78;;;8.60;93.80;;;;;;5047693;28;20068;-68
2021/12/24 06:05:37;;;;;;;34.40;8.57;;;8.60;93.70;;;;;;5046891;28;20091;-68
2021/12/24 06:08:04;;;;;;;27.90;7.03;;;8.50;93.70;;;;;;5026236;28;20100;-68
2021/12/24 06:10:30;;;;;;;31.17;6.97;;;8.50;93.80;;;;;;5039733;28;20132;-68
2021/12/24 06:12:56;;;;;;;36.30;6.90;;;8.50;93.80;;;;;;5047221;28;20120;-67
2021/12/24 06:15:25;;;;;;;29.73;8.00;;;8.50;93.70;;;;;;5035212;28;20045;-68
2021/12/24 06:17:53;;;;;;;32.28;9.35;;;8.50;93.70;;;;;;5043629;28;20041;-67
2021/12/24 06:20:21;;;;;;;30.35;6.95;;;8.50;93.70;;;;;;5047225;28;20048;-67
2021/12/24 06:22:47;;;;;;;32.55;7.13;;;8.50;93.60;;;;;;5046245;28;20064;-67
2021/12/24 06:25:13;;;;;;;24.13;6.28;;;8.40;93.60;;;;;;5050229;28;20037;-67
2021/12/24 06:27:39;;;;;;;40.83;6.85;;;8.40;93.50;;;;;;5046153;28;20049;-68
2021/12/24 06:30:06;;;;;;;33.85;8.10;;;8.40;93.60;;;;;;5047957;28;20037;-68
2021/12/24 06:32:32;;;;;;;27.80;6.22;;;8.50;93.50;;;;;;5046661;28;20393;-68
2021/12/24 06:34:58;;;;;;;33.78;6.80;;;8.50;93.50;;;;;;5042414;28;20123;-68
2021/12/24 06:37:24;;;;;;;22.88;6.28;;;8.50;93.50;;;;;;5048560;28;20777;-67
2021/12/24 06:39:50;;;;;;;36.83;6.47;;;8.50;93.40;;;;;;5033153;28;20418;-67
2021/12/24 06:42:17;;;;;;;35.20;7.57;;;8.50;93.30;;;;;;5050450;28;20048;-67
2021/12/24 06:44:42;;;;;;;22.50;5.47;;;8.40;93.40;;;;;;5051077;28;20091;-67
2021/12/24 06:47:08;;;;;;;21.08;5.43;;;8.50;93.40;;;;;;5050777;28;20076;-67
2021/12/24 06:49:34;;;;;;;31.50;5.70;;;8.50;93.30;;;;;;5051501;28;20041;-67
2021/12/24 06:52:00;;;;;;;32.42;6.63;;;8.50;93.20;;;;;;5049784;28;20476;-67
2021/12/24 06:54:26;;;;;;;27.30;5.80;;;8.40;93.20;;;;;;5050833;28;20052;-67
2021/12/24 06:56:52;;;;;;;26.15;4.90;;;8.40;93.10;;;;;;5051298;28;20048;-68
2021/12/24 06:59:18;;;;;;;25.42;5.55;;;8.40;93.30;;;;;;5049154;28;20114;-67
2021/12/24 07:01:44;;;;;;;29.65;5.72;;;8.40;93.20;;;;;;5050399;28;20045;-67
2021/12/24 07:04:10;;;;;;;28.00;6.35;;;8.40;93.20;;;;;;5051047;28;20375;-68
2021/12/24 07:06:39;;;;;;;27.00;6.10;;;8.50;93.10;;;;;;5046085;28;20040;-68
2021/12/24 07:09:04;;;;;;;23.85;4.55;;;8.60;92.90;;;;;;5049919;28;20106;-68
2021/12/24 07:11:30;;;;;;;25.67;5.53;;;8.60;92.70;;;;;;5050172;28;20048;-68
2021/12/24 07:13:55;;;;;;;25.05;4.85;;;8.60;92.70;;;;;;5049495;28;20517;-68
2021/12/24 07:16:21;;;;;;;17.20;4.85;;;8.60;92.50;;;;;;5049509;28;20029;-67
2021/12/24 07:18:47;;;;;;;16.80;5.45;;;8.50;92.60;;;;;;5046983;28;20048;-67
2021/12/24 07:21:13;;;;;;;29.10;5.10;;;8.50;92.60;;;;;;5050847;28;20041;-67
2021/12/24 07:23:39;;;;;;;24.70;5.30;;;8.50;92.60;;;;;;5049923;28;20156;-66
2021/12/24 07:26:04;;;;;;;23.35;5.47;;;8.50;92.60;;;;;;5050207;28;20577;-66
2021/12/24 07:28:30;;;;;;;18.92;4.80;;;8.50;92.60;;;;;;5049938;28;20456;-67
2021/12/24 07:30:56;;;;;;;19.67;4.70;;;8.50;92.60;;;;;;5050232;28;20053;-67
2021/12/24 07:33:22;;;;;;;19.55;4.68;;;8.50;92.60;;;;;;5047963;28;20060;-67
2021/12/24 07:35:48;;;;;;;24.55;4.88;;;8.50;92.60;;;;;;5049991;28;20052;-66
2021/12/24 07:38:13;;;;;;;29.00;6.38;;;8.50;92.50;;;;;;5049526;28;20041;-66
2021/12/24 07:40:43;;;;;;;25.55;4.80;;;8.60;92.20;;;;;;5049777;28;20449;-67
2021/12/24 07:43:09;;;;;;;30.55;5.65;;;8.50;92.30;;;;;;5030712;28;20140;-67
2021/12/24 07:45:36;;;;;;;27.35;5.57;;;8.50;92.20;;;;;;5044749;28;20049;-67
2021/12/24 07:48:12;;;;;;;26.33;5.55;;;8.50;92.20;;;;;;5034757;28;20056;-67
2021/12/24 07:53:13;;;;;;;25.80;5.22;;;8.50;92.40;;;;;;5036225;28;20128;-65
2021/12/24 07:55:39;;;;;;;28.00;5.28;;;8.50;92.30;;;;;;5038164;28;20048;-66
2021/12/24 07:58:07;;;;;;;22.45;6.60;;;8.40;92.40;;;;;;5041611;28;20045;-68
2021/12/24 08:00:34;;;;;;;26.75;4.80;;;8.50;92.60;;;;;;5032925;28;20037;-68
2021/12/24 08:03:03;;;;;;;26.58;5.40;;;8.50;92.80;;;;;;5029541;28;20054;-67
2021/12/24 08:05:31;;;;;;;24.60;4.32;;;8.50;92.90;;;;;;5029573;28;20059;-68
2021/12/24 08:07:57;;;;;;;30.38;5.32;;;8.50;93.10;;;;;;5011591;28;20049;-68
2021/12/24 08:10:24;;;;;;;27.70;5.78;;;8.50;93.40;;;;;;5029977;28;20041;-68
2021/12/24 08:12:51;;;;;;;23.85;4.50;;;8.50;93.40;;;;;;5029615;28;20048;-68
2021/12/24 08:15:17;;;;;;;24.73;5.57;;;8.50;93.50;;;;;;5039741;28;20623;-68
2021/12/24 08:17:45;;;;;;;30.65;5.40;;;8.40;93.60;;;;;;5041357;28;20114;-68
2021/12/24 08:20:14;;;;;;;38.72;8.73;;;8.40;93.70;;;;;;5045943;28;20098;-68
2021/12/24 08:22:40;;;;;;;29.65;7.78;;;8.40;93.80;;;;;;5018606;28;20116;-67
2021/12/24 08:25:08;;;;;;;28.05;5.15;;;8.50;93.70;;;;;;5031823;28;20133;-68
2021/12/24 08:27:35;;;;;;;24.38;5.82;;;8.40;93.80;;;;;;5031556;28;20391;-68
2021/12/24 08:30:03;;;;;;;30.35;5.50;;;8.40;94.00;;;;;;5012283;28;20099;-67
2021/12/24 08:32:29;;;;;;;32.80;5.32;;;8.40;94.00;;;;;;5043518;28;20058;-67
2021/12/24 08:34:55;;;;;;;37.20;6.65;;;8.40;94.00;;;;;;5048722;28;20057;-67
2021/12/24 08:37:23;;;;;;;29.40;5.60;;;8.40;94.00;;;;;;5028821;28;20510;-68
2021/12/24 08:39:49;;;;;;;28.50;5.38;;;8.40;94.00;;;;;;5029396;28;20049;-67
2021/12/24 08:42:17;;;;;;;31.58;5.85;;;8.40;93.80;;;;;;5046563;28;20061;-68
2021/12/24 08:44:43;;;;;;;35.30;6.57;;;8.40;93.90;;;;;;5048444;28;20441;-68
2021/12/24 08:47:08;;;;;;;33.08;5.95;;;8.40;93.80;;;;;;5048331;28;20053;-68
2021/12/24 08:49:34;;;;;;;28.95;5.43;;;8.40;93.80;;;;;;5030636;28;20459;-68
2021/12/24 08:52:00;;;;;;;30.88;5.65;;;8.40;93.70;;;;;;5042992;28;20505;-68
2021/12/24 08:54:25;;;;;;;30.58;6.55;;;8.50;93.60;;;;;;5029178;28;20103;-68
2021/12/24 08:56:54;;;;;;;43.03;6.68;;;8.60;93.50;;;;;;5041252;28;20408;-68
2021/12/24 08:59:21;;;;;;;32.60;6.80;;;8.50;93.50;;;;;;5048162;28;20517;-68
2021/12/24 09:01:46;;;;;;;26.50;5.22;;;8.50;93.50;;;;;;5046241;28;20071;-67
2021/12/24 09:04:13;;;;;;;29.27;5.57;;;8.50;93.60;;;;;;5038104;28;20041;-67
2021/12/24 09:06:39;;;;;;;37.42;5.57;;;8.60;93.60;;;;;;5029563;28;20051;-68
2021/12/24 09:09:07;;;;;;;28.02;5.05;;;8.70;93.30;;;;;;5046899;28;20056;-66
2021/12/24 09:11:40;;;;;;;25.40;5.35;;;8.60;93.30;;;;;;5029303;28;20049;-68
2021/12/24 09:14:05;;;;;;;28.80;5.30;;;8.60;93.30;;;;;;5047067;28;20045;-64
2021/12/24 09:16:33;;;;;;;33.58;6.45;;;8.60;93.30;;;;;;5047471;28;20561;-67
2021/12/24 09:19:09;;;;;;;28.65;6.07;;;8.60;93.40;;;;;;5048115;28;20397;-66
2021/12/24 09:21:35;;;;;;;35.17;6.65;;;8.60;93.50;;;;;;5048639;28;20056;-67
2021/12/24 09:24:05;;;;;;;32.85;5.28;;;8.60;93.60;;;;;;5037026;28;20110;-67
2021/12/24 09:26:32;;;;;;;39.72;9.38;;;8.60;93.70;;;;;;5046371;28;20045;-67
2021/12/24 09:28:59;;;;;;;35.03;6.70;;;8.60;93.60;;;;;;5037928;28;20061;-67
2021/12/24 09:31:25;;;;;;;36.22;6.65;;;8.60;93.70;;;;;;5044155;28;20049;-67
2021/12/24 09:33:51;;;;;;;33.50;6.88;;;8.50;93.60;;;;;;5048005;28;20055;-67
2021/12/24 09:36:23;;;;;;;45.08;8.73;;;8.60;93.50;;;;;;5047923;28;20067;-66
2021/12/24 09:38:50;;;;;;;44.95;8.93;;;8.40;93.70;;;;;;5046397;28;20044;-66
2021/12/24 09:41:16;;;;;;;31.42;6.38;;;8.40;93.80;;;;;;5047977;28;20406;-66
2021/12/24 09:43:41;;;;;;;40.75;9.05;;;8.40;93.70;;;;;;5051693;28;20055;-65
2021/12/24 09:46:07;;;;;;;44.80;8.20;;;8.30;93.80;;;;;;5043813;28;20087;-66
2021/12/24 09:48:33;;;;;;;41.42;6.15;;;8.30;93.90;;;;;;5045308;28;20044;-66
2021/12/24 09:50:59;;;;;;;35.60;5.93;;;8.30;94.00;;;;;;5050488;28;20040;-66
2021/12/24 09:53:24;;;;;;;22.45;4.97;;;8.20;94.10;;;;;;5050107;28;20084;-66
2021/12/24 09:55:50;;;;;;;26.63;7.10;;;8.20;94.20;;;;;;5051291;28;20044;-66
2021/12/24 09:58:16;;;;;;;14.20;3.88;;;8.20;94.30;;;;;;5051061;28;20041;-66
2021/12/24 10:00:42;;;;;;;15.07;2.78;;;8.20;94.40;;;;;;5049485;28;20044;-66
2021/12/24 10:03:07;;;;;;;9.27;2.30;;;8.20;94.40;;;;;;5048818;28;20530;-66
2021/12/24 10:05:38;;;;;;;9.68;2.13;;;8.20;94.30;;;;;;5050719;28;20136;-66
2021/12/24 10:08:09;;;;;;;6.45;1.80;;;8.10;94.30;;;;;;5050710;28;20049;-66
2021/12/24 10:10:41;;;;;;;3.47;1.42;;;8.10;94.40;;;;;;5044900;28;20036;-66
2021/12/24 10:13:36;;;;;;;4.32;1.42;;;8.10;94.40;;;;;;5039898;28;20059;-66
2021/12/24 10:16:13;;;;;;;2.42;1.13;;;8.10;94.40;;;;;;5050803;28;20032;-66
2021/12/24 10:18:47;;;;;;;1.10;1.00;;;8.10;94.40;;;;;;5049340;28;20087;-67
2021/12/24 10:21:27;;;;;;;1.23;1.00;;;8.10;94.20;;;;;;5051334;28;20513;-66
2021/12/24 10:24:03;;;;;;;0.80;0.80;;;8.00;94.10;;;;;;5051484;28;20056;-65
2021/12/24 10:26:56;;;;;;;0.80;0.80;;;7.80;93.80;;;;;;5049901;28;20052;-66
2021/12/24 10:29:34;;;;;;;1.08;0.80;;;7.80;93.80;;;;;;5058928;28;20082;-66
2021/12/24 10:32:12;;;;;;;2.85;1.10;;;7.70;93.80;;;;;;5049654;28;20099;-66
2021/12/24 10:34:39;;;;;;;2.67;0.95;;;7.70;93.70;;;;;;5051274;28;20417;-66
2021/12/24 10:37:24;;;;;;;4.05;1.40;;;7.60;93.60;;;;;;5050746;28;20048;-65
2021/12/24 10:39:52;;;;;;;2.15;1.17;;;7.60;93.60;;;;;;5049072;28;20051;-65
2021/12/24 10:42:27;;;;;;;1.13;1.00;;;7.60;93.50;;;;;;5050759;28;20044;-65
2021/12/24 10:44:55;;;;;;;1.58;1.20;;;7.60;93.40;;;;;;5050261;28;20059;-65
2021/12/24 10:47:29;;;;;;;1.52;1.20;;;7.60;93.40;;;;;;5050553;28;20053;-65
2021/12/24 10:55:30;;;;;;;1.35;1.10;;;7.50;93.30;;;;;;5050934;28;20052;-65
2021/12/24 10:57:59;;;;;;;2.10;1.20;;;7.50;93.20;;;;;;5049168;28;20525;-65
2021/12/24 11:00:38;;;;;;;1.48;1.20;;;7.50;93.20;;;;;;5050480;28;20045;-64
2021/12/24 11:03:07;;;;;;;3.97;1.85;;;7.50;93.10;;;;;;5045090;28;20135;-65
2021/12/24 11:05:44;;;;;;;1.48;1.20;;;7.50;92.90;;;;;;5033024;28;20052;-66
2021/12/24 11:08:16;;;;;;;2.15;1.77;;;7.40;92.80;;;;;;5049757;28;20053;-64
2021/12/24 11:10:49;;;;;;;2.30;1.70;;;7.40;92.80;;;;;;5036373;28;20049;-65
2021/12/24 11:13:20;;;;;;;3.38;1.83;;;7.40;92.70;;;;;;5043862;28;20059;-65
2021/12/24 11:15:51;;;;;;;3.08;1.58;;;7.40;92.80;;;;;;5050389;28;20129;-65
2021/12/24 11:18:23;;;;;;;2.88;2.05;;;7.40;92.50;;;;;;5045835;28;20398;-65
2021/12/24 11:20:55;;;;;;;2.50;2.15;;;7.50;92.40;;;;;;5048990;28;20041;-65
2021/12/24 11:23:26;;;;;;;3.22;1.90;;;7.50;92.30;;;;;;5049332;28;20051;-65
2021/12/24 11:26:11;;;;;;;2.80;2.35;;;7.40;92.10;;;;;;5046076;28;20107;-65
2021/12/24 11:28:38;;;;;;;2.50;2.20;;;7.50;92.00;;;;;;5050047;28;20069;-65
2021/12/24 11:31:09;;;;;;;4.03;2.40;;;7.50;91.80;;;;;;5049084;28;20041;-65
2021/12/24 11:33:37;;;;;;;2.45;2.22;;;7.50;92.00;;;;;;5049192;28;20040;-65
2021/12/24 11:36:06;;;;;;;3.00;2.22;;;7.40;91.90;;;;;;5050291;28;20072;-65
2021/12/24 11:38:39;;;;;;;3.80;2.80;;;7.40;92.00;;;;;;5046094;28;20047;-65
2021/12/24 11:41:10;;;;;;;3.22;2.88;;;7.40;92.00;;;;;;5031012;28;20040;-65
2021/12/24 11:43:39;;;;;;;4.38;3.05;;;7.50;92.00;;;;;;5032332;28;20061;-64
2021/12/24 11:46:09;;;;;;;3.35;2.60;;;7.40;91.90;;;;;;5029459;28;20064;-65
2021/12/24 11:48:35;;;;;;;3.03;2.60;;;7.40;91.90;;;;;;5029786;28;20053;-65
2021/12/24 11:51:16;;;;;;;4.13;2.40;;;7.40;91.90;;;;;;5037635;28;20155;-65
2021/12/24 11:53:43;;;;;;;3.97;2.50;;;7.60;91.80;;;;;;5047476;28;20402;-65
2021/12/24 11:56:14;;;;;;;4.65;2.60;;;7.50;91.60;;;;;;5049874;28;20049;-65
2021/12/24 11:58:45;;;;;;;3.08;2.30;;;7.40;91.70;;;;;;5049212;28;20060;-64
2021/12/24 12:01:14;;;;;;;3.00;2.30;;;7.50;91.80;;;;;;5038312;28;20390;-65
2021/12/24 12:03:54;;;;;;;2.47;1.95;;;7.60;91.80;;;;;;5037300;28;20074;-65
2021/12/24 12:06:23;;;;;;;3.13;1.90;;;7.60;91.60;;;;;;5045364;28;20110;-65
2021/12/24 12:08:54;;;;;;;1.70;1.60;;;7.60;91.60;;;;;;5029527;28;20037;-66
2021/12/24 12:11:27;;;;;;;2.88;1.95;;;7.50;91.60;;;;;;5043180;28;20289;-66
2021/12/24 12:14:14;;;;;;;4.30;2.13;;;7.50;91.50;;;;;;5052422;28;20090;-66
2021/12/24 12:16:39;;;;;;;2.55;2.22;;;7.60;91.40;;;;;;5046110;28;20536;-66
2021/12/24 12:19:22;;;;;;;2.95;1.80;;;7.50;91.40;;;;;;5029369;28;20072;-65
2021/12/24 12:22:19;;;;;;;2.63;1.70;;;7.50;91.50;;;;;;5040791;28;20049;-69
2021/12/24 12:27:26;;;;;;;4.05;2.08;;;7.40;91.40;;;;;;5048101;28;20413;-66
2021/12/24 12:29:54;;;;;;;6.00;3.97;;;7.40;91.40;;;;;;5049269;28;20063;-67
2021/12/24 12:32:39;;;;;;;3.80;1.90;;;7.40;91.40;;;;;;5043970;28;20636;-66
2021/12/24 12:35:06;;;;;;;2.63;1.98;;;7.40;91.30;;;;;;5035223;28;20111;-66
2021/12/24 12:38:01;;;;;;;3.20;2.20;;;7.40;91.30;;;;;;5041493;28;20047;-67
2021/12/24 12:40:30;;;;;;;4.55;2.30;;;7.40;91.40;;;;;;5036289;28;20256;-68
2021/12/24 12:43:02;;;;;;;3.90;2.08;;;7.40;91.40;;;;;;5024114;28;20060;-67
2021/12/24 12:45:35;;;;;;;2.92;2.28;;;7.40;91.40;;;;;;5041757;28;20053;-67
2021/12/24 12:48:05;;;;;;;2.88;2.05;;;7.40;91.40;;;;;;5029647;28;20060;-68
2021/12/24 12:50:31;;;;;;;2.95;2.00;;;7.50;91.50;;;;;;5044629;28;20520;-67
2021/12/24 12:53:22;;;;;;;3.70;2.15;;;7.60;91.40;;;;;;5042578;28;20425;-67
2021/12/24 12:56:07;;;;;;;4.88;2.50;;;7.60;91.30;;;;;;5051596;28;20549;-68
2021/12/24 12:58:34;;;;;;;3.60;1.80;;;7.60;91.30;;;;;;5035113;28;20041;-67
2021/12/24 13:01:15;;;;;;;4.57;1.90;;;7.70;91.30;;;;;;5046061;28;20409;-67
2021/12/24 13:03:55;;;;;;;6.38;2.35;;;7.80;91.20;;;;;;5046527;28;20045;-67
2021/12/24 13:06:48;;;;;;;3.55;2.13;;;7.80;91.00;;;;;;5048748;28;20456;-67
2021/12/24 13:09:23;;;;;;;3.47;1.77;;;7.80;90.60;;;;;;5026559;28;20151;-67
2021/12/24 13:11:52;;;;;;;5.05;2.05;;;7.70;90.70;;;;;;5047019;28;20509;-67
2021/12/24 13:14:19;;;;;;;3.35;1.95;;;7.70;90.50;;;;;;5043211;28;20041;-68
2021/12/24 13:22:31;;;;;;;4.50;2.30;;;7.70;90.30;;;;;;5062913;28;20064;-67
2021/12/24 13:24:59;;;;;;;2.78;2.00;;;7.80;90.30;;;;;;5033232;28;20048;-67
2021/12/24 13:27:28;;;;;;;3.08;2.00;;;7.70;90.20;;;;;;5042235;28;20449;-67
2021/12/24 13:30:08;;;;;;;3.08;1.63;;;7.70;90.20;;;;;;5042080;28;20055;-67
2021/12/24 13:32:42;;;;;;;2.25;1.73;;;7.80;89.70;;;;;;5048973;28;20460;-67
2021/12/24 13:35:09;;;;;;;2.53;1.55;;;7.70;89.90;;;;;;5034151;28;20060;-67
2021/12/24 13:37:35;;;;;;;2.10;1.60;;;7.70;89.70;;;;;;5050514;28;20109;-67
2021/12/24 13:40:01;;;;;;;5.25;2.30;;;7.70;89.20;;;;;;5049287;28;20091;-65
2021/12/24 13:42:26;;;;;;;3.60;1.73;;;7.80;89.50;;;;;;5050765;28;20052;-66
2021/12/24 13:45:03;;;;;;;2.90;1.50;;;7.70;89.20;;;;;;5039749;28;20661;-66
2021/12/24 13:47:42;;;;;;;2.70;1.52;;;7.70;89.50;;;;;;5050621;28;20047;-66
2021/12/24 13:55:41;;;;;;;4.75;1.80;;;7.80;89.30;;;;;;5047497;28;20044;-66
2021/12/24 13:58:10;;;;;;;6.38;2.67;;;7.80;89.40;;;;;;5045652;28;20045;-66
2021/12/24 14:00:45;;;;;;;2.35;1.77;;;7.80;89.30;;;;;;5048152;28;20470;-66
2021/12/24 14:03:11;;;;;;;6.13;1.58;;;7.80;89.50;;;;;;5041179;28;20752;-66
2021/12/24 14:05:48;;;;;;;12.02;5.25;;;7.90;89.40;;;;;;5050920;28;20045;-66
2021/12/24 14:08:19;;;;;;;9.48;4.85;;;7.90;89.60;;;;;;5041050;28;20060;-67
2021/12/24 14:10:48;;;;;;;7.30;2.53;;;7.90;89.40;;;;;;5047434;28;20387;-66
2021/12/24 14:13:25;;;;;;;5.85;2.40;;;7.90;89.00;;;;;;5048407;28;20045;-66
2021/12/24 14:18:43;;;;;;;3.92;2.25;;;8.00;89.20;;;;;;5049053;28;20492;-67
2021/12/24 14:24:11;;;;;;;3.30;1.80;;;8.00;89.10;;;;;;5050706;28;20179;-66
2021/12/24 14:26:39;;;;;;;7.95;2.10;;;8.00;89.40;;;;;;5049849;28;20307;-66
2021/12/24 14:29:06;;;;;;;5.75;1.95;;;8.00;89.30;;;;;;5050887;28;20512;-66
2021/12/24 14:31:57;;;;;;;3.00;1.90;;;8.00;89.30;;;;;;5036799;28;20406;-66
2021/12/24 14:34:32;;;;;;;5.00;1.88;;;8.00;89.10;;;;;;5049383;28;20103;-66
2021/12/24 14:37:00;;;;;;;3.00;1.75;;;7.90;89.20;;;;;;5049095;28;20056;-66
2021/12/24 14:39:32;;;;;;;13.98;3.78;;;7.90;89.30;;;;;;5054258;28;20041;-62
2021/12/24 14:42:16;;;;;;;6.55;2.67;;;8.00;90.40;;;;;;5045116;28;20086;-66
2021/12/24 14:44:44;;;;;;;3.10;1.60;;;8.60;92.40;;;;;;5030882;28;20172;-66
2021/12/24 14:47:11;;;;;;;4.93;1.95;;;8.50;91.20;;;;;;5042369;28;20107;-67
2021/12/24 14:49:41;;;;;;;4.63;1.23;;;8.30;89.60;;;;;;5035969;28;20041;-66
2021/12/24 14:52:17;;;;;;;2.50;0.77;;;8.10;89.10;;;;;;5031250;28;20120;-66
2021/12/24 14:55:05;;;;;;;2.05;0.70;;;8.00;89.10;;;;;;5048553;28;20043;-66
2021/12/24 14:57:32;;;;;;;1.65;0.90;;;7.90;89.00;;;;;;5030627;28;20045;-66
2021/12/24 15:00:08;;;;;;;2.17;0.90;;;7.80;89.10;;;;;;5044974;28;20049;-66
2021/12/24 15:02:41;;;;;;;1.83;0.90;;;7.70;89.00;;;;;;5035924;28;20130;-66
2021/12/24 15:05:07;;;;;;;2.25;1.02;;;7.60;89.10;;;;;;5042420;28;20045;-66
2021/12/24 15:07:33;;;;;;;7.43;3.22;;;7.50;88.80;;;;;;5048227;28;20389;-66
2021/12/24 15:10:13;;;;;;;1.65;0.73;;;7.50;88.70;;;;;;5048671;28;20052;-65